createdAt,value
2017-05-31T00:00:21.004Z,0
2017-05-31T00:00:47.143Z,0
2017-05-31T00:01:13.309Z,0
2017-05-31T00:01:39.500Z,0
2017-05-31T00:02:05.640Z,0
2017-05-31T00:02:31.803Z,0
2017-05-31T00:02:57.953Z,0
2017-05-31T00:03:24.094Z,0
2017-05-31T00:03:50.226Z,0
2017-05-31T00:04:16.375Z,0
2017-05-31T00:04:42.525Z,0
2017-05-31T00:05:08.721Z,0
2017-05-31T00:05:34.865Z,0
2017-05-31T00:06:01.017Z,0
2017-05-31T00:06:27.152Z,0
2017-05-31T00:06:53.294Z,0
2017-05-31T00:07:19.495Z,0
2017-05-31T00:07:45.578Z,0
2017-05-31T00:08:11.742Z,0
2017-05-31T00:08:37.971Z,0
2017-05-31T00:09:04.147Z,0
2017-05-31T00:09:30.312Z,0
2017-05-31T00:09:56.462Z,0
2017-05-31T00:10:22.600Z,0
2017-05-31T00:10:48.749Z,0
2017-05-31T00:11:14.887Z,0
2017-05-31T00:11:41.020Z,0
2017-05-31T00:12:07.172Z,0
2017-05-31T00:12:33.349Z,0
2017-05-31T00:12:59.513Z,0
2017-05-31T00:13:25.664Z,0
2017-05-31T00:13:51.808Z,0
2017-05-31T00:14:17.940Z,0
2017-05-31T00:14:44.086Z,0
2017-05-31T00:15:10.236Z,0
2017-05-31T00:15:36.372Z,0
2017-05-31T00:16:02.512Z,0
2017-05-31T00:16:28.646Z,0
2017-05-31T00:16:54.792Z,0
2017-05-31T00:17:20.936Z,0
2017-05-31T00:17:47.100Z,0
2017-05-31T00:18:13.246Z,0
2017-05-31T00:18:39.396Z,0
2017-05-31T00:19:05.525Z,0
2017-05-31T00:19:31.665Z,0
2017-05-31T00:19:57.816Z,0
2017-05-31T00:20:23.985Z,0
2017-05-31T00:20:50.160Z,0
2017-05-31T00:21:16.338Z,0
2017-05-31T00:21:42.483Z,0
2017-05-31T00:22:08.633Z,0
2017-05-31T00:22:34.766Z,0
2017-05-31T00:23:00.940Z,0
2017-05-31T00:23:27.167Z,0
2017-05-31T00:23:53.301Z,0
2017-05-31T00:24:19.439Z,0
2017-05-31T00:24:45.593Z,0
2017-05-31T00:25:11.732Z,0
2017-05-31T00:25:37.899Z,0
2017-05-31T00:26:04.052Z,0
2017-05-31T00:26:30.193Z,0
2017-05-31T00:26:56.350Z,0
2017-05-31T00:27:22.475Z,0
2017-05-31T00:27:48.614Z,0
2017-05-31T00:28:14.766Z,0
2017-05-31T00:28:40.900Z,0
2017-05-31T00:29:07.031Z,0
2017-05-31T00:29:33.188Z,0
2017-05-31T00:29:59.329Z,0
2017-05-31T00:30:25.496Z,0
2017-05-31T00:30:51.646Z,0
2017-05-31T00:31:17.822Z,0
2017-05-31T00:31:43.955Z,0
2017-05-31T00:32:10.134Z,0
2017-05-31T00:32:36.271Z,0
2017-05-31T00:33:02.423Z,0
2017-05-31T00:33:28.562Z,0
2017-05-31T00:33:54.726Z,0
2017-05-31T00:34:20.875Z,0
2017-05-31T00:34:47.019Z,0
2017-05-31T00:35:13.152Z,0
2017-05-31T00:35:39.299Z,0
2017-05-31T00:36:05.486Z,0
2017-05-31T00:36:31.614Z,0
2017-05-31T00:36:57.793Z,0
2017-05-31T00:37:23.975Z,0
2017-05-31T00:37:50.144Z,0
2017-05-31T00:38:16.292Z,0
2017-05-31T00:38:42.425Z,0
2017-05-31T00:39:08.571Z,0
2017-05-31T00:39:34.721Z,0
2017-05-31T00:40:00.855Z,0
2017-05-31T00:40:27.028Z,0
2017-05-31T00:40:53.178Z,0
2017-05-31T00:41:19.313Z,0
2017-05-31T00:41:45.454Z,0
2017-05-31T00:42:11.600Z,0
2017-05-31T00:42:37.776Z,0
2017-05-31T00:43:03.940Z,0
2017-05-31T00:43:30.089Z,0
2017-05-31T00:43:56.230Z,0
2017-05-31T00:44:22.382Z,0
2017-05-31T00:44:48.548Z,0
2017-05-31T00:45:14.782Z,0
2017-05-31T00:45:40.930Z,0
2017-05-31T00:46:07.069Z,0
2017-05-31T00:46:33.209Z,0
2017-05-31T00:46:59.364Z,0
2017-05-31T00:47:25.505Z,0
2017-05-31T00:47:51.667Z,0
2017-05-31T00:48:17.888Z,0
2017-05-31T00:48:44.031Z,0
2017-05-31T00:49:10.197Z,0
2017-05-31T00:49:36.343Z,0
2017-05-31T00:50:02.490Z,0
2017-05-31T00:50:28.622Z,0
2017-05-31T00:50:54.765Z,0
2017-05-31T00:51:20.922Z,0
2017-05-31T00:51:47.060Z,0
2017-05-31T00:52:13.234Z,0
2017-05-31T00:52:39.381Z,0
2017-05-31T00:53:05.519Z,0
2017-05-31T00:53:31.653Z,0
2017-05-31T00:53:57.803Z,0
2017-05-31T00:54:23.944Z,0
2017-05-31T00:54:50.089Z,0
2017-05-31T00:55:16.223Z,0
2017-05-31T00:55:42.396Z,0
2017-05-31T00:56:08.544Z,0
2017-05-31T00:56:34.684Z,0
2017-05-31T00:57:00.818Z,0
2017-05-31T00:57:26.977Z,0
2017-05-31T00:57:53.123Z,0
2017-05-31T00:58:19.288Z,0
2017-05-31T00:58:45.440Z,0
2017-05-31T00:59:11.584Z,0
2017-05-31T00:59:37.780Z,0
2017-05-31T01:00:03.927Z,0
2017-05-31T01:00:30.061Z,0
2017-05-31T01:00:56.244Z,0
2017-05-31T01:01:22.419Z,0
2017-05-31T01:01:48.550Z,0
2017-05-31T01:02:14.701Z,0
2017-05-31T01:02:40.844Z,0
2017-05-31T01:03:06.977Z,0
2017-05-31T01:03:33.160Z,0
2017-05-31T01:03:59.310Z,0
2017-05-31T01:04:25.443Z,0
2017-05-31T01:04:51.586Z,0
2017-05-31T01:05:17.744Z,0
2017-05-31T01:05:43.881Z,0
2017-05-31T01:06:10.026Z,0
2017-05-31T01:06:36.158Z,0
2017-05-31T01:07:02.304Z,0
2017-05-31T01:07:28.455Z,0
2017-05-31T01:07:54.585Z,0
2017-05-31T01:08:20.727Z,0
2017-05-31T01:08:46.950Z,0
2017-05-31T01:09:13.084Z,0
2017-05-31T01:09:39.259Z,0
2017-05-31T01:10:05.410Z,0
2017-05-31T01:10:31.547Z,0
2017-05-31T01:10:57.678Z,0
2017-05-31T01:11:23.830Z,0
2017-05-31T01:11:49.968Z,0
2017-05-31T01:12:16.164Z,0
2017-05-31T01:12:42.313Z,0
2017-05-31T01:13:08.491Z,0
2017-05-31T01:13:34.659Z,0
2017-05-31T01:14:00.805Z,0
2017-05-31T01:14:26.956Z,0
2017-05-31T01:14:53.154Z,0
2017-05-31T01:15:19.301Z,0
2017-05-31T01:15:45.452Z,0
2017-05-31T01:16:11.617Z,0
2017-05-31T01:16:37.756Z,0
2017-05-31T01:17:03.897Z,0
2017-05-31T01:17:30.046Z,0
2017-05-31T01:17:56.196Z,0
2017-05-31T01:18:22.324Z,0
2017-05-31T01:18:48.465Z,0
2017-05-31T01:19:14.617Z,0
2017-05-31T01:19:40.802Z,0
2017-05-31T01:20:06.942Z,0
2017-05-31T01:20:33.127Z,0
2017-05-31T01:20:59.298Z,0
2017-05-31T01:21:25.468Z,0
2017-05-31T01:21:51.618Z,0
2017-05-31T01:22:17.792Z,0
2017-05-31T01:22:43.974Z,0
2017-05-31T01:23:10.108Z,0
2017-05-31T01:23:36.277Z,0
2017-05-31T01:24:02.429Z,0
2017-05-31T01:24:28.598Z,0
2017-05-31T01:24:54.729Z,0
2017-05-31T01:25:20.915Z,0
2017-05-31T01:25:47.058Z,0
2017-05-31T01:26:13.190Z,0
2017-05-31T01:26:39.340Z,0
2017-05-31T01:27:05.518Z,0
2017-05-31T01:27:31.649Z,0
2017-05-31T01:27:57.794Z,0
2017-05-31T01:28:23.929Z,0
2017-05-31T01:28:50.078Z,0
2017-05-31T01:29:16.219Z,0
2017-05-31T01:29:42.351Z,0
2017-05-31T01:30:08.498Z,0
2017-05-31T01:30:34.640Z,0
2017-05-31T01:31:00.806Z,0
2017-05-31T01:31:26.951Z,0
2017-05-31T01:31:53.101Z,0
2017-05-31T01:32:19.264Z,0
2017-05-31T01:32:45.442Z,0
2017-05-31T01:33:11.589Z,0
2017-05-31T01:33:37.728Z,0
2017-05-31T01:34:03.909Z,0
2017-05-31T01:34:30.059Z,0
2017-05-31T01:34:56.253Z,0
2017-05-31T01:35:22.353Z,0
2017-05-31T01:35:48.541Z,0
2017-05-31T01:36:14.678Z,0
2017-05-31T01:36:40.842Z,0
2017-05-31T01:37:06.993Z,0
2017-05-31T01:37:33.174Z,0
2017-05-31T01:37:59.307Z,0
2017-05-31T01:38:25.452Z,0
2017-05-31T01:38:51.637Z,0
2017-05-31T01:39:17.773Z,0
2017-05-31T01:39:43.964Z,0
2017-05-31T01:40:10.098Z,0
2017-05-31T01:40:36.247Z,0
2017-05-31T01:41:02.390Z,0
2017-05-31T01:41:28.525Z,0
2017-05-31T01:41:54.707Z,0
2017-05-31T01:42:20.859Z,0
2017-05-31T01:42:46.987Z,0
2017-05-31T01:43:13.130Z,0
2017-05-31T01:43:39.283Z,0
2017-05-31T01:44:05.419Z,0
2017-05-31T01:44:31.594Z,0
2017-05-31T01:44:57.732Z,0
2017-05-31T01:45:23.877Z,0
2017-05-31T01:45:50.025Z,0
2017-05-31T01:46:16.154Z,0
2017-05-31T01:46:42.300Z,0
2017-05-31T01:47:08.449Z,0
2017-05-31T01:47:34.619Z,0
2017-05-31T01:48:00.790Z,0
2017-05-31T01:48:26.942Z,0
2017-05-31T01:48:53.114Z,0
2017-05-31T01:49:19.245Z,0
2017-05-31T01:49:45.468Z,0
2017-05-31T01:50:11.644Z,0
2017-05-31T01:50:37.827Z,0
2017-05-31T01:51:03.959Z,0
2017-05-31T01:51:30.129Z,0
2017-05-31T01:51:56.278Z,0
2017-05-31T01:52:22.417Z,0
2017-05-31T01:52:48.583Z,0
2017-05-31T01:53:14.735Z,0
2017-05-31T01:53:40.877Z,0
2017-05-31T01:54:07.010Z,0
2017-05-31T01:54:33.157Z,0
2017-05-31T01:54:59.301Z,0
2017-05-31T01:55:25.433Z,0
2017-05-31T01:55:51.579Z,0
2017-05-31T01:56:17.711Z,0
2017-05-31T01:56:43.860Z,0
2017-05-31T01:57:09.999Z,0
2017-05-31T01:57:36.166Z,0
2017-05-31T01:58:02.315Z,0
2017-05-31T01:58:28.461Z,0
2017-05-31T01:58:54.595Z,0
2017-05-31T01:59:20.749Z,0
2017-05-31T01:59:46.928Z,0
2017-05-31T02:00:13.057Z,0
2017-05-31T02:00:39.200Z,0
2017-05-31T02:01:05.349Z,0
2017-05-31T02:01:31.485Z,0
2017-05-31T02:01:57.631Z,0
2017-05-31T02:02:23.765Z,0
2017-05-31T02:02:49.948Z,0
2017-05-31T02:03:16.131Z,0
2017-05-31T02:03:42.298Z,0
2017-05-31T02:04:08.472Z,0
2017-05-31T02:04:34.623Z,0
2017-05-31T02:05:00.753Z,0
2017-05-31T02:05:26.891Z,0
2017-05-31T02:05:53.042Z,0
2017-05-31T02:06:19.175Z,0
2017-05-31T02:06:45.306Z,0
2017-05-31T02:07:11.456Z,0
2017-05-31T02:07:37.664Z,0
2017-05-31T02:08:03.815Z,0
2017-05-31T02:08:29.951Z,0
2017-05-31T02:08:56.097Z,0
2017-05-31T02:09:22.280Z,0
2017-05-31T02:09:48.416Z,0
2017-05-31T02:10:14.548Z,0
2017-05-31T02:10:40.735Z,0
2017-05-31T02:11:06.874Z,0
2017-05-31T02:11:33.006Z,0
2017-05-31T02:11:59.152Z,0
2017-05-31T02:12:25.297Z,0
2017-05-31T02:12:51.438Z,0
2017-05-31T02:13:17.608Z,0
2017-05-31T02:13:43.744Z,0
2017-05-31T02:14:09.929Z,0
2017-05-31T02:14:36.102Z,0
2017-05-31T02:15:02.233Z,0
2017-05-31T02:15:28.383Z,0
2017-05-31T02:15:54.524Z,0
2017-05-31T02:16:20.659Z,0
2017-05-31T02:16:46.843Z,0
2017-05-31T02:17:12.992Z,0
2017-05-31T02:17:39.123Z,0
2017-05-31T02:18:05.267Z,0
2017-05-31T02:18:31.451Z,0
2017-05-31T02:18:57.585Z,0
2017-05-31T02:19:23.723Z,0
2017-05-31T02:19:49.874Z,0
2017-05-31T02:20:16.045Z,0
2017-05-31T02:20:42.210Z,0
2017-05-31T02:21:08.362Z,0
2017-05-31T02:21:34.504Z,0
2017-05-31T02:22:00.635Z,0
2017-05-31T02:22:26.817Z,0
2017-05-31T02:22:52.994Z,0
2017-05-31T02:23:20.118Z,0
2017-05-31T02:23:46.263Z,0
2017-05-31T02:24:12.399Z,0
2017-05-31T02:24:38.623Z,0
2017-05-31T02:25:04.759Z,0
2017-05-31T02:25:30.957Z,0
2017-05-31T02:25:57.106Z,0
2017-05-31T02:26:23.252Z,0
2017-05-31T02:26:49.419Z,0
2017-05-31T02:27:15.568Z,0
2017-05-31T02:27:41.752Z,0
2017-05-31T02:28:07.885Z,0
2017-05-31T02:28:34.063Z,0
2017-05-31T02:29:00.250Z,0
2017-05-31T02:29:26.383Z,4
2017-05-31T02:29:52.566Z,4
2017-05-31T02:30:19.048Z,4
2017-05-31T02:30:45.196Z,4
2017-05-31T02:31:11.382Z,4
2017-05-31T02:31:37.544Z,4
2017-05-31T02:32:03.688Z,4
2017-05-31T02:32:29.935Z,0
2017-05-31T02:32:56.075Z,0
2017-05-31T02:33:22.254Z,0
2017-05-31T02:33:48.403Z,0
2017-05-31T02:34:14.576Z,4
2017-05-31T02:34:40.743Z,4
2017-05-31T02:35:06.926Z,4
2017-05-31T02:35:33.070Z,4
2017-05-31T02:35:59.220Z,4
2017-05-31T02:36:25.353Z,4
2017-05-31T02:36:51.493Z,4
2017-05-31T02:37:17.675Z,4
2017-05-31T02:37:43.812Z,4
2017-05-31T02:38:09.944Z,4
2017-05-31T02:38:36.133Z,4
2017-05-31T02:39:02.271Z,8
2017-05-31T02:39:28.404Z,4
2017-05-31T02:39:54.586Z,4
2017-05-31T02:40:20.766Z,4
2017-05-31T02:40:46.910Z,4
2017-05-31T02:41:13.081Z,8
2017-05-31T02:41:39.214Z,8
2017-05-31T02:42:05.367Z,8
2017-05-31T02:42:31.542Z,4
2017-05-31T02:42:57.709Z,4
2017-05-31T02:43:23.928Z,8
2017-05-31T02:43:50.105Z,8
2017-05-31T02:44:16.239Z,8
2017-05-31T02:44:42.383Z,8
2017-05-31T02:45:08.530Z,8
2017-05-31T02:45:34.662Z,8
2017-05-31T02:46:00.809Z,12
2017-05-31T02:46:26.945Z,8
2017-05-31T02:46:53.158Z,8
2017-05-31T02:47:19.301Z,12
2017-05-31T02:47:45.468Z,12
2017-05-31T02:48:11.654Z,8
2017-05-31T02:48:37.837Z,12
2017-05-31T02:49:03.999Z,12
2017-05-31T02:49:30.177Z,12
2017-05-31T02:49:56.323Z,12
2017-05-31T02:50:22.458Z,12
2017-05-31T02:50:48.633Z,12
2017-05-31T02:51:14.783Z,12
2017-05-31T02:51:40.957Z,16
2017-05-31T02:52:07.139Z,12
2017-05-31T02:52:33.272Z,16
2017-05-31T02:52:59.412Z,16
2017-05-31T02:53:25.561Z,16
2017-05-31T02:53:51.697Z,20
2017-05-31T02:54:17.836Z,20
2017-05-31T02:54:43.981Z,24
2017-05-31T02:55:10.170Z,24
2017-05-31T02:55:36.325Z,28
2017-05-31T02:56:02.480Z,32
2017-05-31T02:56:28.620Z,32
2017-05-31T02:56:54.753Z,36
2017-05-31T02:57:20.901Z,40
2017-05-31T02:57:47.039Z,36
2017-05-31T02:58:13.188Z,40
2017-05-31T02:58:39.324Z,44
2017-05-31T02:59:05.482Z,48
2017-05-31T02:59:31.635Z,48
2017-05-31T02:59:57.776Z,52
2017-05-31T03:00:23.941Z,52
2017-05-31T03:00:50.092Z,52
2017-05-31T03:01:16.236Z,56
2017-05-31T03:01:42.434Z,64
2017-05-31T03:02:08.616Z,60
2017-05-31T03:02:34.802Z,64
2017-05-31T03:03:00.932Z,68
2017-05-31T03:03:27.097Z,72
2017-05-31T03:03:53.262Z,76
2017-05-31T03:04:19.432Z,72
2017-05-31T03:04:45.572Z,76
2017-05-31T03:05:11.720Z,84
2017-05-31T03:05:37.893Z,84
2017-05-31T03:06:04.028Z,88
2017-05-31T03:06:30.179Z,92
2017-05-31T03:06:56.317Z,96
2017-05-31T03:07:22.450Z,100
2017-05-31T03:07:48.599Z,104
2017-05-31T03:08:14.742Z,112
2017-05-31T03:08:40.921Z,116
2017-05-31T03:09:07.059Z,124
2017-05-31T03:09:33.193Z,128
2017-05-31T03:09:59.349Z,136
2017-05-31T03:10:25.489Z,144
2017-05-31T03:10:51.626Z,152
2017-05-31T03:11:17.774Z,156
2017-05-31T03:11:43.956Z,168
2017-05-31T03:12:10.088Z,172
2017-05-31T03:12:36.230Z,180
2017-05-31T03:13:02.416Z,184
2017-05-31T03:13:28.548Z,192
2017-05-31T03:13:54.690Z,200
2017-05-31T03:14:20.829Z,208
2017-05-31T03:14:47.013Z,216
2017-05-31T03:15:13.157Z,224
2017-05-31T03:15:39.325Z,236
2017-05-31T03:16:05.473Z,244
2017-05-31T03:16:31.624Z,256
2017-05-31T03:16:57.752Z,260
2017-05-31T03:17:23.893Z,272
2017-05-31T03:17:50.048Z,280
2017-05-31T03:18:16.184Z,296
2017-05-31T03:18:42.353Z,304
2017-05-31T03:19:08.540Z,320
2017-05-31T03:19:34.712Z,336
2017-05-31T03:20:00.858Z,348
2017-05-31T03:20:26.989Z,360
2017-05-31T03:20:53.134Z,376
2017-05-31T03:21:19.284Z,388
2017-05-31T03:21:45.413Z,400
2017-05-31T03:22:11.553Z,416
2017-05-31T03:22:37.775Z,428
2017-05-31T03:23:03.913Z,436
2017-05-31T03:23:30.046Z,448
2017-05-31T03:23:56.199Z,464
2017-05-31T03:24:22.375Z,472
2017-05-31T03:24:48.505Z,488
2017-05-31T03:25:14.688Z,504
2017-05-31T03:25:40.840Z,520
2017-05-31T03:26:06.975Z,532
2017-05-31T03:26:33.145Z,544
2017-05-31T03:26:59.313Z,560
2017-05-31T03:27:25.468Z,572
2017-05-31T03:27:51.606Z,580
2017-05-31T03:28:17.770Z,592
2017-05-31T03:28:43.919Z,596
2017-05-31T03:29:10.137Z,608
2017-05-31T03:29:36.304Z,620
2017-05-31T03:30:02.454Z,632
2017-05-31T03:30:28.605Z,652
2017-05-31T03:30:54.774Z,672
2017-05-31T03:31:20.948Z,688
2017-05-31T03:31:47.080Z,708
2017-05-31T03:32:13.229Z,720
2017-05-31T03:32:39.446Z,732
2017-05-31T03:33:05.582Z,748
2017-05-31T03:33:31.728Z,760
2017-05-31T03:33:57.951Z,776
2017-05-31T03:34:24.120Z,788
2017-05-31T03:34:50.265Z,800
2017-05-31T03:35:16.419Z,812
2017-05-31T03:35:42.553Z,816
2017-05-31T03:36:08.691Z,824
2017-05-31T03:36:34.829Z,828
2017-05-31T03:37:00.977Z,840
2017-05-31T03:37:27.201Z,844
2017-05-31T03:37:53.331Z,848
2017-05-31T03:38:19.474Z,848
2017-05-31T03:38:45.624Z,856
2017-05-31T03:39:11.757Z,860
2017-05-31T03:39:37.900Z,864
2017-05-31T03:40:04.050Z,876
2017-05-31T03:40:30.222Z,888
2017-05-31T03:40:56.358Z,896
2017-05-31T03:41:22.547Z,912
2017-05-31T03:41:48.685Z,924
2017-05-31T03:42:14.833Z,936
2017-05-31T03:42:40.968Z,944
2017-05-31T03:43:07.139Z,956
2017-05-31T03:43:33.287Z,972
2017-05-31T03:43:59.427Z,992
2017-05-31T03:44:25.560Z,1024
2017-05-31T03:44:51.714Z,1056
2017-05-31T03:45:17.888Z,1084
2017-05-31T03:45:44.055Z,1116
2017-05-31T03:46:10.204Z,1144
2017-05-31T03:46:36.349Z,1168
2017-05-31T03:47:02.481Z,1188
2017-05-31T03:47:28.626Z,1204
2017-05-31T03:47:54.774Z,1216
2017-05-31T03:48:20.905Z,1228
2017-05-31T03:48:47.117Z,1244
2017-05-31T03:49:13.337Z,1264
2017-05-31T03:49:39.471Z,1288
2017-05-31T03:50:05.614Z,1308
2017-05-31T03:50:31.798Z,1336
2017-05-31T03:50:57.936Z,1360
2017-05-31T03:51:24.103Z,1384
2017-05-31T03:51:50.255Z,1404
2017-05-31T03:52:16.397Z,1424
2017-05-31T03:52:42.532Z,1440
2017-05-31T03:53:08.682Z,1452
2017-05-31T03:53:34.820Z,1460
2017-05-31T03:54:00.968Z,1476
2017-05-31T03:54:27.119Z,1484
2017-05-31T03:54:53.271Z,1496
2017-05-31T03:55:19.422Z,1512
2017-05-31T03:55:45.635Z,1516
2017-05-31T03:56:11.769Z,1520
2017-05-31T03:56:37.955Z,1532
2017-05-31T03:57:04.099Z,1548
2017-05-31T03:57:30.267Z,1576
2017-05-31T03:57:56.446Z,1616
2017-05-31T03:58:22.595Z,1664
2017-05-31T03:58:48.764Z,1712
2017-05-31T03:59:14.913Z,1756
2017-05-31T03:59:41.045Z,1780
2017-05-31T04:00:07.227Z,1800
2017-05-31T04:00:33.407Z,1824
2017-05-31T04:00:59.542Z,1848
2017-05-31T04:01:25.725Z,1864
2017-05-31T04:01:51.876Z,1884
2017-05-31T04:02:18.004Z,1904
2017-05-31T04:02:44.179Z,1924
2017-05-31T04:03:10.326Z,1944
2017-05-31T04:03:36.498Z,1972
2017-05-31T04:04:02.642Z,2000
2017-05-31T04:04:28.784Z,2028
2017-05-31T04:04:54.928Z,2068
2017-05-31T04:05:21.082Z,2104
2017-05-31T04:05:47.211Z,2144
2017-05-31T04:06:13.355Z,2176
2017-05-31T04:06:39.503Z,2212
2017-05-31T04:07:05.670Z,2232
2017-05-31T04:07:31.844Z,2232
2017-05-31T04:07:57.997Z,2216
2017-05-31T04:08:24.136Z,2196
2017-05-31T04:08:50.270Z,2168
2017-05-31T04:09:16.421Z,2144
2017-05-31T04:09:42.600Z,2136
2017-05-31T04:10:08.782Z,2144
2017-05-31T04:10:34.914Z,2164
2017-05-31T04:11:01.052Z,2196
2017-05-31T04:11:27.235Z,2236
2017-05-31T04:11:53.407Z,2288
2017-05-31T04:12:19.540Z,2340
2017-05-31T04:12:45.722Z,2392
2017-05-31T04:13:11.864Z,2448
2017-05-31T04:13:38.064Z,2504
2017-05-31T04:14:04.279Z,2552
2017-05-31T04:14:30.457Z,2604
2017-05-31T04:14:56.588Z,2664
2017-05-31T04:15:22.768Z,2728
2017-05-31T04:15:48.934Z,2800
2017-05-31T04:16:15.084Z,2876
2017-05-31T04:16:41.272Z,2948
2017-05-31T04:17:07.406Z,3024
2017-05-31T04:17:33.557Z,3088
2017-05-31T04:17:59.732Z,3144
2017-05-31T04:18:25.868Z,3196
2017-05-31T04:18:52.015Z,3240
2017-05-31T04:19:18.200Z,3292
2017-05-31T04:19:44.330Z,3344
2017-05-31T04:20:10.475Z,3404
2017-05-31T04:20:36.627Z,3472
2017-05-31T04:21:02.863Z,3540
2017-05-31T04:21:29.011Z,3612
2017-05-31T04:21:55.177Z,3676
2017-05-31T04:22:21.394Z,3736
2017-05-31T04:22:47.546Z,3788
2017-05-31T04:23:13.675Z,3840
2017-05-31T04:23:39.853Z,3896
2017-05-31T04:24:06.040Z,3964
2017-05-31T04:24:32.172Z,4020
2017-05-31T04:24:58.343Z,4076
2017-05-31T04:25:24.490Z,4148
2017-05-31T04:25:50.629Z,4236
2017-05-31T04:26:16.799Z,4336
2017-05-31T04:26:42.979Z,4436
2017-05-31T04:27:09.120Z,4536
2017-05-31T04:27:35.270Z,4648
2017-05-31T04:28:01.405Z,4776
2017-05-31T04:28:27.545Z,4908
2017-05-31T04:28:53.730Z,5080
2017-05-31T04:29:19.903Z,5220
2017-05-31T04:29:46.036Z,5300
2017-05-31T04:30:12.189Z,5380
2017-05-31T04:30:38.333Z,5456
2017-05-31T04:31:04.500Z,5504
2017-05-31T04:31:30.650Z,5548
2017-05-31T04:31:56.829Z,5572
2017-05-31T04:32:22.964Z,5588
2017-05-31T04:32:49.108Z,5604
2017-05-31T04:33:15.259Z,5616
2017-05-31T04:33:41.391Z,5624
2017-05-31T04:34:07.602Z,5624
2017-05-31T04:34:33.751Z,5620
2017-05-31T04:34:59.883Z,5600
2017-05-31T04:35:26.022Z,5584
2017-05-31T04:35:52.175Z,5588
2017-05-31T04:36:18.314Z,5612
2017-05-31T04:36:44.477Z,5656
2017-05-31T04:37:10.632Z,5704
2017-05-31T04:37:36.810Z,5748
2017-05-31T04:38:02.959Z,5812
2017-05-31T04:38:29.091Z,5876
2017-05-31T04:38:55.228Z,5928
2017-05-31T04:39:21.380Z,5992
2017-05-31T04:39:47.551Z,6044
2017-05-31T04:40:13.718Z,6108
2017-05-31T04:40:39.905Z,6132
2017-05-31T04:41:06.046Z,6036
2017-05-31T04:41:32.180Z,6692
2017-05-31T04:41:58.329Z,9728
2017-05-31T04:42:24.472Z,12672
2017-05-31T04:42:50.607Z,15264
2017-05-31T04:43:16.754Z,16480
2017-05-31T04:43:42.885Z,16128
2017-05-31T04:44:09.037Z,19520
2017-05-31T04:44:35.176Z,19808
2017-05-31T04:45:01.341Z,20384
2017-05-31T04:45:27.492Z,20800
2017-05-31T04:45:53.634Z,20896
2017-05-31T04:46:19.769Z,21344
2017-05-31T04:46:45.917Z,21568
2017-05-31T04:47:12.068Z,22016
2017-05-31T04:47:38.233Z,21984
2017-05-31T04:48:04.379Z,22016
2017-05-31T04:48:30.531Z,22016
2017-05-31T04:48:56.664Z,22816
2017-05-31T04:49:22.812Z,22592
2017-05-31T04:49:48.943Z,22912
2017-05-31T04:50:15.089Z,23648
2017-05-31T04:50:41.239Z,23968
2017-05-31T04:51:07.369Z,24416
2017-05-31T04:51:33.517Z,25024
2017-05-31T04:51:59.668Z,25248
2017-05-31T04:52:25.800Z,25472
2017-05-31T04:52:51.938Z,25536
2017-05-31T04:53:18.126Z,25856
2017-05-31T04:53:44.289Z,26592
2017-05-31T04:54:10.423Z,27232
2017-05-31T04:54:36.572Z,26592
2017-05-31T04:55:02.750Z,25568
2017-05-31T04:55:28.900Z,24000
2017-05-31T04:55:55.034Z,22432
2017-05-31T04:56:21.210Z,20608
2017-05-31T04:56:47.361Z,18496
2017-05-31T04:57:13.537Z,16832
2017-05-31T04:57:39.668Z,12416
2017-05-31T04:58:05.856Z,12784
2017-05-31T04:58:31.997Z,12116
2017-05-31T04:58:58.130Z,10784
2017-05-31T04:59:24.282Z,9724
2017-05-31T04:59:50.424Z,9216
2017-05-31T05:00:16.568Z,9104
2017-05-31T05:00:42.749Z,9088
2017-05-31T05:01:08.914Z,9088
2017-05-31T05:01:35.067Z,9084
2017-05-31T05:02:01.560Z,9084
2017-05-31T05:02:27.757Z,9108
2017-05-31T05:02:53.909Z,9188
2017-05-31T05:03:20.053Z,9428
2017-05-31T05:03:46.186Z,9784
2017-05-31T05:04:12.396Z,10172
2017-05-31T05:04:38.547Z,10588
2017-05-31T05:05:04.677Z,11168
2017-05-31T05:05:30.822Z,11868
2017-05-31T05:05:56.960Z,12696
2017-05-31T05:06:23.112Z,13436
2017-05-31T05:06:49.254Z,13988
2017-05-31T05:07:15.389Z,14404
2017-05-31T05:07:41.538Z,14624
2017-05-31T05:08:07.724Z,14700
2017-05-31T05:08:33.855Z,14600
2017-05-31T05:08:59.999Z,14272
2017-05-31T05:09:26.153Z,14032
2017-05-31T05:09:52.288Z,13260
2017-05-31T05:10:18.426Z,13644
2017-05-31T05:10:44.575Z,13072
2017-05-31T05:11:10.718Z,12340
2017-05-31T05:11:36.868Z,11836
2017-05-31T05:12:03.031Z,10920
2017-05-31T05:12:29.178Z,10584
2017-05-31T05:12:55.328Z,10504
2017-05-31T05:13:21.464Z,9640
2017-05-31T05:13:47.607Z,9260
2017-05-31T05:14:13.758Z,8736
2017-05-31T05:14:39.932Z,8368
2017-05-31T05:15:06.100Z,8004
2017-05-31T05:15:32.299Z,7776
2017-05-31T05:15:58.437Z,7744
2017-05-31T05:16:24.636Z,7784
2017-05-31T05:16:50.823Z,7820
2017-05-31T05:17:16.966Z,7812
2017-05-31T05:17:43.098Z,7956
2017-05-31T05:18:09.246Z,8016
2017-05-31T05:18:35.432Z,8384
2017-05-31T05:19:01.562Z,8912
2017-05-31T05:19:27.740Z,9652
2017-05-31T05:19:53.895Z,8968
2017-05-31T05:20:20.030Z,8452
2017-05-31T05:20:46.172Z,8360
2017-05-31T05:21:12.394Z,8868
2017-05-31T05:21:38.564Z,8612
2017-05-31T05:22:04.764Z,8840
2017-05-31T05:22:30.914Z,9628
2017-05-31T05:22:57.076Z,9324
2017-05-31T05:23:23.227Z,9656
2017-05-31T05:23:49.360Z,10152
2017-05-31T05:24:15.501Z,10464
2017-05-31T05:24:41.652Z,10668
2017-05-31T05:25:07.791Z,10828
2017-05-31T05:25:33.926Z,11024
2017-05-31T05:26:00.160Z,11368
2017-05-31T05:26:26.295Z,11660
2017-05-31T05:26:52.465Z,11940
2017-05-31T05:27:18.615Z,12196
2017-05-31T05:27:44.797Z,12380
2017-05-31T05:28:10.940Z,12576
2017-05-31T05:28:37.080Z,12884
2017-05-31T05:29:03.213Z,12824
2017-05-31T05:29:29.369Z,13436
2017-05-31T05:29:55.508Z,13784
2017-05-31T05:30:21.718Z,14344
2017-05-31T05:30:47.871Z,15124
2017-05-31T05:31:14.052Z,15156
2017-05-31T05:31:40.187Z,15492
2017-05-31T05:32:06.333Z,15944
2017-05-31T05:32:32.783Z,16660
2017-05-31T05:32:58.945Z,16992
2017-05-31T05:33:25.089Z,16960
2017-05-31T05:33:51.230Z,17280
2017-05-31T05:34:17.381Z,17888
2017-05-31T05:34:43.525Z,18304
2017-05-31T05:35:09.658Z,17888
2017-05-31T05:35:35.842Z,17280
2017-05-31T05:36:01.993Z,16252
2017-05-31T05:36:28.125Z,15380
2017-05-31T05:36:54.302Z,14516
2017-05-31T05:37:20.489Z,13756
2017-05-31T05:37:46.620Z,13216
2017-05-31T05:38:12.761Z,12832
2017-05-31T05:38:38.914Z,12720
2017-05-31T05:39:05.054Z,12752
2017-05-31T05:39:31.237Z,12664
2017-05-31T05:39:57.366Z,12720
2017-05-31T05:40:23.510Z,12756
2017-05-31T05:40:49.701Z,13844
2017-05-31T05:41:15.836Z,14208
2017-05-31T05:41:41.978Z,14072
2017-05-31T05:42:08.163Z,13672
2017-05-31T05:42:34.386Z,13864
2017-05-31T05:43:00.523Z,14284
2017-05-31T05:43:26.675Z,14884
2017-05-31T05:43:52.820Z,15736
2017-05-31T05:44:18.949Z,17140
2017-05-31T05:44:45.097Z,17696
2017-05-31T05:45:11.269Z,17760
2017-05-31T05:45:37.420Z,17632
2017-05-31T05:46:03.595Z,17440
2017-05-31T05:46:29.762Z,17084
2017-05-31T05:46:55.947Z,16868
2017-05-31T05:47:22.077Z,16364
2017-05-31T05:47:48.215Z,16032
2017-05-31T05:48:14.367Z,16156
2017-05-31T05:48:40.547Z,15604
2017-05-31T05:49:06.684Z,14980
2017-05-31T05:49:32.899Z,14384
2017-05-31T05:49:59.050Z,13536
2017-05-31T05:50:25.190Z,13496
2017-05-31T05:50:51.331Z,13568
2017-05-31T05:51:17.466Z,13880
2017-05-31T05:51:43.640Z,13592
2017-05-31T05:52:09.777Z,13876
2017-05-31T05:52:35.904Z,13840
2017-05-31T05:53:02.019Z,13780
2017-05-31T05:53:28.125Z,13776
2017-05-31T05:53:54.215Z,13804
2017-05-31T05:54:20.323Z,13776
2017-05-31T05:54:46.475Z,13688
2017-05-31T05:55:13.096Z,13608
2017-05-31T05:55:39.181Z,13520
2017-05-31T05:56:05.323Z,13432
2017-05-31T05:56:31.442Z,13324
2017-05-31T05:56:57.550Z,13212
2017-05-31T05:57:23.666Z,13104
2017-05-31T05:57:49.793Z,13016
2017-05-31T05:58:15.902Z,12820
2017-05-31T05:58:41.995Z,12628
2017-05-31T05:59:08.116Z,12508
2017-05-31T05:59:34.224Z,12404
2017-05-31T06:00:00.349Z,12376
2017-05-31T06:00:26.442Z,12404
2017-05-31T06:00:52.553Z,12508
2017-05-31T06:01:18.651Z,12560
2017-05-31T06:01:44.770Z,12564
2017-05-31T06:02:10.879Z,12612
2017-05-31T06:02:36.982Z,12696
2017-05-31T06:03:03.073Z,12764
2017-05-31T06:03:29.177Z,12804
2017-05-31T06:03:55.312Z,12816
2017-05-31T06:04:21.403Z,12920
2017-05-31T06:04:47.529Z,13132
2017-05-31T06:05:13.635Z,13604